sensor_id;sensor_type;location;lat;lon;timestamp;P1;durP1;ratioP1;P2;durP2;ratioP2
17949;SDS011;9100;48.700;9.316;2022-11-18T00:00:10;0.6;;;0.6;;
17949;SDS011;9100;48.700;9.316;2022-11-18T00:03:10;0.6;;;0.6;;
17949;SDS011;9100;48.700;9.316;2022-11-18T00:03:15;0.6;;;0.6;;
17949;SDS011;9100;48.700;9.316;2022-11-18T00:04:10;0.7;;;0.7;;
17949;SDS011;9100;48.700;9.316;2022-11-18T00:04:13;0.7;;;0.7;;
17949;SDS011;9100;48.700;9.316;2022-11-18T00:05:10;0.7;;;0.7;;
17949;SDS011;9100;48.700;9.316;2022-11-18T00:06:11;0.7;;;0.7;;
17949;SDS011;9100;48.700;9.316;2022-11-18T00:07:10;0.7;;;0.7;;
17949;SDS011;9100;48.700;9.316;2022-11-18T00:08:10;0.7;;;0.7;;
17949;SDS011;9100;48.700;9.316;2022-11-18T00:09:10;1;;;0.9;;
17949;SDS011;9100;48.700;9.316;2022-11-18T00:09:13;0.9;;;0.8;;
17949;SDS011;9100;48.700;9.316;2022-11-18T00:10:10;0.9;;;0.8;;
17949;SDS011;9100;48.700;9.316;2022-11-18T00:11:10;0.9;;;0.8;;
17949;SDS011;9100;48.700;9.316;2022-11-18T00:12:10;0.9;;;0.8;;
17949;SDS011;9100;48.700;9.316;2022-11-18T00:13:10;0.9;;;0.8;;
17949;SDS011;9100;48.700;9.316;2022-11-18T00:14:10;0.8;;;0.8;;
17949;SDS011;9100;48.700;9.316;2022-11-18T00:14:14;0.8;;;0.8;;
17949;SDS011;9100;48.700;9.316;2022-11-18T00:15:10;0.8;;;0.8;;
17949;SDS011;9100;48.700;9.316;2022-11-18T00:16:10;0.8;;;0.8;;
17949;SDS011;9100;48.700;9.316;2022-11-18T00:17:10;0.8;;;0.8;;
17949;SDS011;9100;48.700;9.316;2022-11-18T00:18:10;0.8;;;0.8;;
17949;SDS011;9100;48.700;9.316;2022-11-18T00:19:10;1.4;;;0.8;;
17949;SDS011;9100;48.700;9.316;2022-11-18T00:19:13;1.4;;;0.8;;
17949;SDS011;9100;48.700;9.316;2022-11-18T00:20:10;1.4;;;0.8;;
17949;SDS011;9100;48.700;9.316;2022-11-18T00:21:10;1.4;;;0.8;;
17949;SDS011;9100;48.700;9.316;2022-11-18T00:22:11;1.4;;;0.8;;
17949;SDS011;9100;48.700;9.316;2022-11-18T00:23:10;1.4;;;0.8;;
17949;SDS011;9100;48.700;9.316;2022-11-18T00:24:10;0.8;;;0.8;;
17949;SDS011;9100;48.700;9.316;2022-11-18T00:24:13;0.7;;;0.7;;
17949;SDS011;9100;48.700;9.316;2022-11-18T00:25:10;0.7;;;0.7;;
17949;SDS011;9100;48.700;9.316;2022-11-18T00:26:10;0.7;;;0.7;;
17949;SDS011;9100;48.700;9.316;2022-11-18T00:27:10;0.7;;;0.7;;
17949;SDS011;9100;48.700;9.316;2022-11-18T00:28:10;0.7;;;0.7;;
17949;SDS011;9100;48.700;9.316;2022-11-18T00:29:10;0.9;;;0.9;;
17949;SDS011;9100;48.700;9.316;2022-11-18T00:29:13;0.9;;;0.9;;
17949;SDS011;9100;48.700;9.316;2022-11-18T00:30:10;0.9;;;0.9;;
17949;SDS011;9100;48.700;9.316;2022-11-18T00:31:10;0.9;;;0.9;;
17949;SDS011;9100;48.700;9.316;2022-11-18T00:32:10;0.9;;;0.9;;
17949;SDS011;9100;48.700;9.316;2022-11-18T00:33:10;0.9;;;0.9;;
17949;SDS011;9100;48.700;9.316;2022-11-18T00:34:10;1.1;;;0.9;;
17949;SDS011;9100;48.700;9.316;2022-11-18T00:34:14;1.1;;;0.9;;
17949;SDS011;9100;48.700;9.316;2022-11-18T00:35:10;1.1;;;0.9;;
17949;SDS011;9100;48.700;9.316;2022-11-18T00:36:10;1.1;;;0.9;;
17949;SDS011;9100;48.700;9.316;2022-11-18T00:37:10;1.1;;;0.9;;
17949;SDS011;9100;48.700;9.316;2022-11-18T00:38:10;1.1;;;0.9;;
17949;SDS011;9100;48.700;9.316;2022-11-18T00:39:10;1.5;;;0.9;;
17949;SDS011;9100;48.700;9.316;2022-11-18T00:39:14;1.5;;;0.9;;
17949;SDS011;9100;48.700;9.316;2022-11-18T00:40:10;1.5;;;0.9;;
17949;SDS011;9100;48.700;9.316;2022-11-18T00:41:10;1.5;;;0.9;;
17949;SDS011;9100;48.700;9.316;2022-11-18T00:42:10;1.5;;;0.9;;
17949;SDS011;9100;48.700;9.316;2022-11-18T00:43:10;1.5;;;0.9;;
17949;SDS011;9100;48.700;9.316;2022-11-18T00:44:10;0.8;;;0.8;;
17949;SDS011;9100;48.700;9.316;2022-11-18T00:44:13;0.8;;;0.8;;
17949;SDS011;9100;48.700;9.316;2022-11-18T00:45:10;0.8;;;0.8;;
17949;SDS011;9100;48.700;9.316;2022-11-18T00:46:10;0.8;;;0.8;;
17949;SDS011;9100;48.700;9.316;2022-11-18T00:47:10;0.8;;;0.8;;
17949;SDS011;9100;48.700;9.316;2022-11-18T00:48:10;0.8;;;0.8;;
17949;SDS011;9100;48.700;9.316;2022-11-18T00:49:10;0.6;;;0.6;;
17949;SDS011;9100;48.700;9.316;2022-11-18T00:49:13;0.6;;;0.6;;
17949;SDS011;9100;48.700;9.316;2022-11-18T00:50:10;0.6;;;0.6;;
17949;SDS011;9100;48.700;9.316;2022-11-18T00:51:12;0.6;;;0.6;;
17949;SDS011;9100;48.700;9.316;2022-11-18T00:52:10;0.6;;;0.6;;
17949;SDS011;9100;48.700;9.316;2022-11-18T00:53:10;0.6;;;0.6;;
17949;SDS011;9100;48.700;9.316;2022-11-18T00:54:10;0.8;;;0.8;;
17949;SDS011;9100;48.700;9.316;2022-11-18T00:54:13;0.7;;;0.7;;
17949;SDS011;9100;48.700;9.316;2022-11-18T00:55:10;0.7;;;0.7;;
17949;SDS011;9100;48.700;9.316;2022-11-18T00:56:10;0.7;;;0.7;;
17949;SDS011;9100;48.700;9.316;2022-11-18T00:57:10;0.7;;;0.7;;
17949;SDS011;9100;48.700;9.316;2022-11-18T00:58:10;0.7;;;0.7;;
17949;SDS011;9100;48.700;9.316;2022-11-18T00:59:10;0.8;;;0.8;;
17949;SDS011;9100;48.700;9.316;2022-11-18T00:59:13;0.8;;;0.8;;
17949;SDS011;9100;48.700;9.316;2022-11-18T01:00:10;0.8;;;0.8;;
17949;SDS011;9100;48.700;9.316;2022-11-18T01:01:10;0.8;;;0.8;;
17949;SDS011;9100;48.700;9.316;2022-11-18T01:02:10;0.8;;;0.8;;
17949;SDS011;9100;48.700;9.316;2022-11-18T01:03:10;0.8;;;0.8;;
17949;SDS011;9100;48.700;9.316;2022-11-18T01:04:10;0.9;;;0.8;;
17949;SDS011;9100;48.700;9.316;2022-11-18T01:04:13;0.9;;;0.7;;
17949;SDS011;9100;48.700;9.316;2022-11-18T01:05:10;0.9;;;0.7;;
17949;SDS011;9100;48.700;9.316;2022-11-18T01:06:10;0.9;;;0.7;;
17949;SDS011;9100;48.700;9.316;2022-11-18T01:07:10;0.9;;;0.7;;
17949;SDS011;9100;48.700;9.316;2022-11-18T01:08:10;0.9;;;0.7;;
17949;SDS011;9100;48.700;9.316;2022-11-18T01:09:10;0.7;;;0.7;;
17949;SDS011;9100;48.700;9.316;2022-11-18T01:09:13;0.7;;;0.7;;
17949;SDS011;9100;48.700;9.316;2022-11-18T01:10:10;0.7;;;0.7;;
17949;SDS011;9100;48.700;9.316;2022-11-18T01:11:10;0.7;;;0.7;;
17949;SDS011;9100;48.700;9.316;2022-11-18T01:12:10;0.7;;;0.7;;
17949;SDS011;9100;48.700;9.316;2022-11-18T01:13:10;0.7;;;0.7;;
17949;SDS011;9100;48.700;9.316;2022-11-18T01:14:10;1.2;;;0.6;;
17949;SDS011;9100;48.700;9.316;2022-11-18T01:14:13;1.1;;;0.6;;
17949;SDS011;9100;48.700;9.316;2022-11-18T01:15:10;1.1;;;0.6;;
17949;SDS011;9100;48.700;9.316;2022-11-18T01:16:10;1.1;;;0.6;;
17949;SDS011;9100;48.700;9.316;2022-11-18T01:17:10;1.1;;;0.6;;
17949;SDS011;9100;48.700;9.316;2022-11-18T01:18:10;1.1;;;0.6;;
17949;SDS011;9100;48.700;9.316;2022-11-18T01:19:10;1;;;0.8;;
17949;SDS011;9100;48.700;9.316;2022-11-18T01:19:13;0.9;;;0.8;;
17949;SDS011;9100;48.700;9.316;2022-11-18T01:20:10;0.9;;;0.8;;
17949;SDS011;9100;48.700;9.316;2022-11-18T01:21:10;0.9;;;0.8;;
17949;SDS011;9100;48.700;9.316;2022-11-18T01:22:10;0.9;;;0.8;;
17949;SDS011;9100;48.700;9.316;2022-11-18T01:23:10;0.9;;;0.8;;
17949;SDS011;9100;48.700;9.316;2022-11-18T01:24:10;1.7;;;0.9;;
17949;SDS011;9100;48.700;9.316;2022-11-18T01:24:13;1.7;;;0.9;;
17949;SDS011;9100;48.700;9.316;2022-11-18T01:25:10;1.7;;;0.9;;
17949;SDS011;9100;48.700;9.316;2022-11-18T01:26:10;1.7;;;0.9;;
17949;SDS011;9100;48.700;9.316;2022-11-18T01:27:10;1.7;;;0.9;;
17949;SDS011;9100;48.700;9.316;2022-11-18T01:28:10;1.7;;;0.9;;
17949;SDS011;9100;48.700;9.316;2022-11-18T01:29:10;0.9;;;0.6;;
17949;SDS011;9100;48.700;9.316;2022-11-18T01:29:13;0.9;;;0.6;;
17949;SDS011;9100;48.700;9.316;2022-11-18T01:30:10;0.9;;;0.6;;
17949;SDS011;9100;48.700;9.316;2022-11-18T01:31:11;0.9;;;0.6;;
17949;SDS011;9100;48.700;9.316;2022-11-18T01:32:10;0.9;;;0.6;;
17949;SDS011;9100;48.700;9.316;2022-11-18T01:33:10;0.9;;;0.6;;
17949;SDS011;9100;48.700;9.316;2022-11-18T01:34:10;0.8;;;0.8;;
17949;SDS011;9100;48.700;9.316;2022-11-18T01:34:13;0.8;;;0.8;;
17949;SDS011;9100;48.700;9.316;2022-11-18T01:35:10;0.8;;;0.8;;
17949;SDS011;9100;48.700;9.316;2022-11-18T01:36:14;0.8;;;0.8;;
17949;SDS011;9100;48.700;9.316;2022-11-18T01:37:10;0.8;;;0.8;;
17949;SDS011;9100;48.700;9.316;2022-11-18T01:38:10;0.8;;;0.8;;
17949;SDS011;9100;48.700;9.316;2022-11-18T01:39:10;0.8;;;0.8;;
17949;SDS011;9100;48.700;9.316;2022-11-18T01:39:13;0.8;;;0.8;;
17949;SDS011;9100;48.700;9.316;2022-11-18T01:40:10;0.8;;;0.8;;
17949;SDS011;9100;48.700;9.316;2022-11-18T01:41:10;0.8;;;0.8;;
17949;SDS011;9100;48.700;9.316;2022-11-18T01:42:11;0.8;;;0.8;;
17949;SDS011;9100;48.700;9.316;2022-11-18T01:43:10;0.8;;;0.8;;
17949;SDS011;9100;48.700;9.316;2022-11-18T01:44:53;1.3;;;0.7;;
17949;SDS011;9100;48.700;9.316;2022-11-18T01:45:14;1.2;;;0.7;;
17949;SDS011;9100;48.700;9.316;2022-11-18T01:45:20;1.2;;;0.7;;
17949;SDS011;9100;48.700;9.316;2022-11-18T01:46:10;1.2;;;0.7;;
17949;SDS011;9100;48.700;9.316;2022-11-18T01:47:10;1.2;;;0.7;;
17949;SDS011;9100;48.700;9.316;2022-11-18T01:48:10;1.2;;;0.7;;
17949;SDS011;9100;48.700;9.316;2022-11-18T01:49:10;0.7;;;0.7;;
17949;SDS011;9100;48.700;9.316;2022-11-18T01:49:13;0.7;;;0.7;;
17949;SDS011;9100;48.700;9.316;2022-11-18T01:50:10;0.7;;;0.7;;
17949;SDS011;9100;48.700;9.316;2022-11-18T01:51:11;0.7;;;0.7;;
17949;SDS011;9100;48.700;9.316;2022-11-18T01:52:10;0.7;;;0.7;;
17949;SDS011;9100;48.700;9.316;2022-11-18T01:53:10;0.7;;;0.7;;
17949;SDS011;9100;48.700;9.316;2022-11-18T01:54:10;0.7;;;0.7;;
17949;SDS011;9100;48.700;9.316;2022-11-18T01:54:14;0.7;;;0.7;;
17949;SDS011;9100;48.700;9.316;2022-11-18T01:55:11;0.7;;;0.7;;
17949;SDS011;9100;48.700;9.316;2022-11-18T01:56:11;0.7;;;0.7;;
17949;SDS011;9100;48.700;9.316;2022-11-18T01:57:11;0.7;;;0.7;;
17949;SDS011;9100;48.700;9.316;2022-11-18T01:58:11;0.7;;;0.7;;
17949;SDS011;9100;48.700;9.316;2022-11-18T01:59:10;0.7;;;0.7;;
17949;SDS011;9100;48.700;9.316;2022-11-18T01:59:13;0.7;;;0.7;;
17949;SDS011;9100;48.700;9.316;2022-11-18T02:00:10;0.7;;;0.7;;
17949;SDS011;9100;48.700;9.316;2022-11-18T02:01:10;0.7;;;0.7;;
17949;SDS011;9100;48.700;9.316;2022-11-18T02:02:10;0.7;;;0.7;;
17949;SDS011;9100;48.700;9.316;2022-11-18T02:03:10;0.7;;;0.7;;
17949;SDS011;9100;48.700;9.316;2022-11-18T02:04:10;0.7;;;0.7;;
17949;SDS011;9100;48.700;9.316;2022-11-18T02:04:13;0.7;;;0.7;;
17949;SDS011;9100;48.700;9.316;2022-11-18T02:05:10;0.7;;;0.7;;
17949;SDS011;9100;48.700;9.316;2022-11-18T02:06:10;0.7;;;0.7;;
17949;SDS011;9100;48.700;9.316;2022-11-18T02:07:10;0.7;;;0.7;;
17949;SDS011;9100;48.700;9.316;2022-11-18T02:08:10;0.7;;;0.7;;
17949;SDS011;9100;48.700;9.316;2022-11-18T02:09:10;0.9;;;0.7;;
17949;SDS011;9100;48.700;9.316;2022-11-18T02:09:13;1.1;;;0.7;;
17949;SDS011;9100;48.700;9.316;2022-11-18T02:10:17;1.1;;;0.7;;
17949;SDS011;9100;48.700;9.316;2022-11-18T02:11:10;1.1;;;0.7;;
17949;SDS011;9100;48.700;9.316;2022-11-18T02:12:10;1.1;;;0.7;;
17949;SDS011;9100;48.700;9.316;2022-11-18T02:13:10;1.1;;;0.7;;
17949;SDS011;9100;48.700;9.316;2022-11-18T02:14:10;0.7;;;0.7;;
17949;SDS011;9100;48.700;9.316;2022-11-18T02:14:13;0.7;;;0.7;;
17949;SDS011;9100;48.700;9.316;2022-11-18T02:15:10;0.7;;;0.7;;
17949;SDS011;9100;48.700;9.316;2022-11-18T02:16:11;0.7;;;0.7;;
17949;SDS011;9100;48.700;9.316;2022-11-18T02:17:11;0.7;;;0.7;;
17949;SDS011;9100;48.700;9.316;2022-11-18T02:18:11;0.7;;;0.7;;
17949;SDS011;9100;48.700;9.316;2022-11-18T02:19:13;0.7;;;0.7;;
17949;SDS011;9100;48.700;9.316;2022-11-18T02:19:17;0.7;;;0.7;;
17949;SDS011;9100;48.700;9.316;2022-11-18T02:20:19;0.7;;;0.7;;
17949;SDS011;9100;48.700;9.316;2022-11-18T02:21:12;0.7;;;0.7;;
17949;SDS011;9100;48.700;9.316;2022-11-18T02:22:12;0.7;;;0.7;;
17949;SDS011;9100;48.700;9.316;2022-11-18T02:24:19;0.8;;;0.6;;
17949;SDS011;9100;48.700;9.316;2022-11-18T02:24:22;0.8;;;0.6;;
17949;SDS011;9100;48.700;9.316;2022-11-18T02:25:12;0.8;;;0.6;;
17949;SDS011;9100;48.700;9.316;2022-11-18T02:26:17;0.8;;;0.6;;
17949;SDS011;9100;48.700;9.316;2022-11-18T02:27:16;0.8;;;0.6;;
17949;SDS011;9100;48.700;9.316;2022-11-18T02:28:15;0.8;;;0.6;;
17949;SDS011;9100;48.700;9.316;2022-11-18T02:29:10;1;;;0.7;;
17949;SDS011;9100;48.700;9.316;2022-11-18T02:29:14;0.9;;;0.7;;
17949;SDS011;9100;48.700;9.316;2022-11-18T02:30:10;0.9;;;0.7;;
17949;SDS011;9100;48.700;9.316;2022-11-18T02:31:10;0.9;;;0.7;;
17949;SDS011;9100;48.700;9.316;2022-11-18T02:32:10;0.9;;;0.7;;
17949;SDS011;9100;48.700;9.316;2022-11-18T02:33:10;0.9;;;0.7;;
17949;SDS011;9100;48.700;9.316;2022-11-18T02:34:13;0.7;;;0.7;;
17949;SDS011;9100;48.700;9.316;2022-11-18T02:34:15;0.7;;;0.7;;
17949;SDS011;9100;48.700;9.316;2022-11-18T02:35:12;0.7;;;0.7;;
17949;SDS011;9100;48.700;9.316;2022-11-18T02:36:12;0.7;;;0.7;;
17949;SDS011;9100;48.700;9.316;2022-11-18T02:37:11;0.7;;;0.7;;
17949;SDS011;9100;48.700;9.316;2022-11-18T02:38:10;0.7;;;0.7;;
17949;SDS011;9100;48.700;9.316;2022-11-18T02:39:11;0.7;;;0.7;;
17949;SDS011;9100;48.700;9.316;2022-11-18T02:39:15;0.7;;;0.7;;
17949;SDS011;9100;48.700;9.316;2022-11-18T02:40:11;0.7;;;0.7;;
17949;SDS011;9100;48.700;9.316;2022-11-18T02:41:11;0.7;;;0.7;;
17949;SDS011;9100;48.700;9.316;2022-11-18T02:42:10;0.7;;;0.7;;
17949;SDS011;9100;48.700;9.316;2022-11-18T02:43:10;0.7;;;0.7;;
17949;SDS011;9100;48.700;9.316;2022-11-18T02:44:11;0.8;;;0.6;;
17949;SDS011;9100;48.700;9.316;2022-11-18T02:44:14;0.8;;;0.6;;
17949;SDS011;9100;48.700;9.316;2022-11-18T02:45:11;0.8;;;0.6;;
17949;SDS011;9100;48.700;9.316;2022-11-18T02:46:10;0.8;;;0.6;;
17949;SDS011;9100;48.700;9.316;2022-11-18T02:47:10;0.8;;;0.6;;
17949;SDS011;9100;48.700;9.316;2022-11-18T02:48:10;0.8;;;0.6;;
17949;SDS011;9100;48.700;9.316;2022-11-18T02:49:11;0.6;;;0.6;;
17949;SDS011;9100;48.700;9.316;2022-11-18T02:49:14;0.6;;;0.6;;
17949;SDS011;9100;48.700;9.316;2022-11-18T02:50:10;0.6;;;0.6;;
17949;SDS011;9100;48.700;9.316;2022-11-18T02:51:10;0.6;;;0.6;;
17949;SDS011;9100;48.700;9.316;2022-11-18T02:52:10;0.6;;;0.6;;
17949;SDS011;9100;48.700;9.316;2022-11-18T02:53:11;0.6;;;0.6;;
17949;SDS011;9100;48.700;9.316;2022-11-18T02:54:10;2.5;;;0.8;;
17949;SDS011;9100;48.700;9.316;2022-11-18T02:54:13;2.4;;;0.8;;
17949;SDS011;9100;48.700;9.316;2022-11-18T02:55:10;2.4;;;0.8;;
17949;SDS011;9100;48.700;9.316;2022-11-18T02:56:10;2.4;;;0.8;;
17949;SDS011;9100;48.700;9.316;2022-11-18T02:57:10;2.4;;;0.8;;
17949;SDS011;9100;48.700;9.316;2022-11-18T02:58:10;2.4;;;0.8;;
17949;SDS011;9100;48.700;9.316;2022-11-18T02:59:10;0.6;;;0.6;;
17949;SDS011;9100;48.700;9.316;2022-11-18T02:59:16;0.6;;;0.6;;
17949;SDS011;9100;48.700;9.316;2022-11-18T03:00:10;0.6;;;0.6;;
17949;SDS011;9100;48.700;9.316;2022-11-18T03:01:13;0.6;;;0.6;;
17949;SDS011;9100;48.700;9.316;2022-11-18T03:02:11;0.6;;;0.6;;
17949;SDS011;9100;48.700;9.316;2022-11-18T03:03:20;0.6;;;0.6;;
17949;SDS011;9100;48.700;9.316;2022-11-18T03:04:10;1.1;;;0.5;;
17949;SDS011;9100;48.700;9.316;2022-11-18T03:04:14;1;;;0.5;;
17949;SDS011;9100;48.700;9.316;2022-11-18T03:05:12;1;;;0.5;;
17949;SDS011;9100;48.700;9.316;2022-11-18T03:06:12;1;;;0.5;;
17949;SDS011;9100;48.700;9.316;2022-11-18T03:07:10;1;;;0.5;;
17949;SDS011;9100;48.700;9.316;2022-11-18T03:08:12;1;;;0.5;;
17949;SDS011;9100;48.700;9.316;2022-11-18T03:09:10;0.9;;;0.6;;
17949;SDS011;9100;48.700;9.316;2022-11-18T03:09:14;0.9;;;0.6;;
17949;SDS011;9100;48.700;9.316;2022-11-18T03:10:10;0.9;;;0.6;;
17949;SDS011;9100;48.700;9.316;2022-11-18T03:11:11;0.9;;;0.6;;
17949;SDS011;9100;48.700;9.316;2022-11-18T03:12:13;0.9;;;0.6;;
17949;SDS011;9100;48.700;9.316;2022-11-18T03:13:10;0.9;;;0.6;;
17949;SDS011;9100;48.700;9.316;2022-11-18T03:14:14;1.2;;;1.1;;
17949;SDS011;9100;48.700;9.316;2022-11-18T03:14:16;1.2;;;1.1;;
17949;SDS011;9100;48.700;9.316;2022-11-18T03:15:11;1.2;;;1.1;;
17949;SDS011;9100;48.700;9.316;2022-11-18T03:16:11;1.2;;;1.1;;
17949;SDS011;9100;48.700;9.316;2022-11-18T03:17:10;1.2;;;1.1;;
17949;SDS011;9100;48.700;9.316;2022-11-18T03:18:12;1.2;;;1.1;;
17949;SDS011;9100;48.700;9.316;2022-11-18T03:19:12;0.7;;;0.7;;
17949;SDS011;9100;48.700;9.316;2022-11-18T03:19:16;0.7;;;0.7;;
17949;SDS011;9100;48.700;9.316;2022-11-18T03:20:11;0.7;;;0.7;;
17949;SDS011;9100;48.700;9.316;2022-11-18T03:21:10;0.7;;;0.7;;
17949;SDS011;9100;48.700;9.316;2022-11-18T03:22:10;0.7;;;0.7;;
17949;SDS011;9100;48.700;9.316;2022-11-18T03:23:11;0.7;;;0.7;;
17949;SDS011;9100;48.700;9.316;2022-11-18T03:24:10;0.8;;;0.7;;
17949;SDS011;9100;48.700;9.316;2022-11-18T03:24:14;0.9;;;0.6;;
17949;SDS011;9100;48.700;9.316;2022-11-18T03:25:11;0.9;;;0.6;;
17949;SDS011;9100;48.700;9.316;2022-11-18T03:26:10;0.9;;;0.6;;
17949;SDS011;9100;48.700;9.316;2022-11-18T03:27:12;0.9;;;0.6;;
17949;SDS011;9100;48.700;9.316;2022-11-18T03:28:11;0.9;;;0.6;;
17949;SDS011;9100;48.700;9.316;2022-11-18T03:29:12;0.8;;;0.8;;
17949;SDS011;9100;48.700;9.316;2022-11-18T03:29:14;0.8;;;0.8;;
17949;SDS011;9100;48.700;9.316;2022-11-18T03:30:11;0.8;;;0.8;;
17949;SDS011;9100;48.700;9.316;2022-11-18T03:31:11;0.8;;;0.8;;
17949;SDS011;9100;48.700;9.316;2022-11-18T03:32:11;0.8;;;0.8;;
17949;SDS011;9100;48.700;9.316;2022-11-18T03:33:10;0.8;;;0.8;;
17949;SDS011;9100;48.700;9.316;2022-11-18T03:34:11;0.7;;;0.6;;
17949;SDS011;9100;48.700;9.316;2022-11-18T03:34:13;0.7;;;0.6;;
17949;SDS011;9100;48.700;9.316;2022-11-18T03:35:11;0.7;;;0.6;;
17949;SDS011;9100;48.700;9.316;2022-11-18T03:36:11;0.7;;;0.6;;
17949;SDS011;9100;48.700;9.316;2022-11-18T03:37:11;0.7;;;0.6;;
17949;SDS011;9100;48.700;9.316;2022-11-18T03:38:11;0.7;;;0.6;;
17949;SDS011;9100;48.700;9.316;2022-11-18T03:39:10;1.5;;;0.6;;
17949;SDS011;9100;48.700;9.316;2022-11-18T03:39:13;1.5;;;0.6;;
17949;SDS011;9100;48.700;9.316;2022-11-18T03:40:11;1.5;;;0.6;;
17949;SDS011;9100;48.700;9.316;2022-11-18T03:41:10;1.5;;;0.6;;
17949;SDS011;9100;48.700;9.316;2022-11-18T03:42:10;1.5;;;0.6;;
17949;SDS011;9100;48.700;9.316;2022-11-18T03:43:10;1.5;;;0.6;;
17949;SDS011;9100;48.700;9.316;2022-11-18T03:44:11;0.6;;;0.6;;
17949;SDS011;9100;48.700;9.316;2022-11-18T03:44:15;0.6;;;0.6;;
17949;SDS011;9100;48.700;9.316;2022-11-18T03:45:11;0.6;;;0.6;;
17949;SDS011;9100;48.700;9.316;2022-11-18T03:46:10;0.6;;;0.6;;
17949;SDS011;9100;48.700;9.316;2022-11-18T03:47:11;0.6;;;0.6;;
17949;SDS011;9100;48.700;9.316;2022-11-18T03:48:11;0.6;;;0.6;;
17949;SDS011;9100;48.700;9.316;2022-11-18T03:49:11;0.7;;;0.6;;
17949;SDS011;9100;48.700;9.316;2022-11-18T03:49:14;0.7;;;0.6;;
17949;SDS011;9100;48.700;9.316;2022-11-18T03:50:10;0.7;;;0.6;;
17949;SDS011;9100;48.700;9.316;2022-11-18T03:51:10;0.7;;;0.6;;
17949;SDS011;9100;48.700;9.316;2022-11-18T03:52:11;0.7;;;0.6;;
17949;SDS011;9100;48.700;9.316;2022-11-18T03:53:10;0.7;;;0.6;;
17949;SDS011;9100;48.700;9.316;2022-11-18T03:54:10;0.8;;;0.6;;
17949;SDS011;9100;48.700;9.316;2022-11-18T03:54:15;0.8;;;0.6;;
17949;SDS011;9100;48.700;9.316;2022-11-18T03:55:11;0.8;;;0.6;;
17949;SDS011;9100;48.700;9.316;2022-11-18T03:56:11;0.8;;;0.6;;
17949;SDS011;9100;48.700;9.316;2022-11-18T03:57:10;0.8;;;0.6;;
17949;SDS011;9100;48.700;9.316;2022-11-18T03:58:10;0.8;;;0.6;;
17949;SDS011;9100;48.700;9.316;2022-11-18T03:59:11;0.6;;;0.5;;
17949;SDS011;9100;48.700;9.316;2022-11-18T03:59:14;0.6;;;0.5;;
17949;SDS011;9100;48.700;9.316;2022-11-18T04:00:10;0.6;;;0.5;;
17949;SDS011;9100;48.700;9.316;2022-11-18T04:01:10;0.6;;;0.5;;
17949;SDS011;9100;48.700;9.316;2022-11-18T04:02:10;0.6;;;0.5;;
17949;SDS011;9100;48.700;9.316;2022-11-18T04:03:10;0.6;;;0.5;;
17949;SDS011;9100;48.700;9.316;2022-11-18T04:04:10;0.5;;;0.5;;
17949;SDS011;9100;48.700;9.316;2022-11-18T04:04:13;0.5;;;0.5;;
17949;SDS011;9100;48.700;9.316;2022-11-18T04:05:10;0.5;;;0.5;;
17949;SDS011;9100;48.700;9.316;2022-11-18T04:06:13;0.5;;;0.5;;
17949;SDS011;9100;48.700;9.316;2022-11-18T04:07:10;0.5;;;0.5;;
17949;SDS011;9100;48.700;9.316;2022-11-18T04:08:10;0.5;;;0.5;;
17949;SDS011;9100;48.700;9.316;2022-11-18T04:09:10;0.7;;;0.5;;
17949;SDS011;9100;48.700;9.316;2022-11-18T04:09:19;0.7;;;0.5;;
17949;SDS011;9100;48.700;9.316;2022-11-18T04:10:10;0.7;;;0.5;;
17949;SDS011;9100;48.700;9.316;2022-11-18T04:11:11;0.7;;;0.5;;
17949;SDS011;9100;48.700;9.316;2022-11-18T04:12:11;0.7;;;0.5;;
17949;SDS011;9100;48.700;9.316;2022-11-18T04:13:11;0.7;;;0.5;;
17949;SDS011;9100;48.700;9.316;2022-11-18T04:14:10;0.6;;;0.6;;
17949;SDS011;9100;48.700;9.316;2022-11-18T04:14:13;0.6;;;0.5;;
17949;SDS011;9100;48.700;9.316;2022-11-18T04:15:10;0.6;;;0.5;;
17949;SDS011;9100;48.700;9.316;2022-11-18T04:16:10;0.6;;;0.5;;
17949;SDS011;9100;48.700;9.316;2022-11-18T04:17:11;0.6;;;0.5;;
17949;SDS011;9100;48.700;9.316;2022-11-18T04:18:10;0.6;;;0.5;;
17949;SDS011;9100;48.700;9.316;2022-11-18T04:19:10;1.1;;;0.6;;
17949;SDS011;9100;48.700;9.316;2022-11-18T04:19:13;1;;;0.6;;
17949;SDS011;9100;48.700;9.316;2022-11-18T04:20:12;1;;;0.6;;
17949;SDS011;9100;48.700;9.316;2022-11-18T04:21:10;1;;;0.6;;
17949;SDS011;9100;48.700;9.316;2022-11-18T04:22:10;1;;;0.6;;
17949;SDS011;9100;48.700;9.316;2022-11-18T04:23:10;1;;;0.6;;
17949;SDS011;9100;48.700;9.316;2022-11-18T04:24:10;5.1;;;0.6;;
17949;SDS011;9100;48.700;9.316;2022-11-18T04:24:13;5;;;0.6;;
17949;SDS011;9100;48.700;9.316;2022-11-18T04:25:10;5;;;0.6;;
17949;SDS011;9100;48.700;9.316;2022-11-18T04:26:10;5;;;0.6;;
17949;SDS011;9100;48.700;9.316;2022-11-18T04:27:10;5;;;0.6;;
17949;SDS011;9100;48.700;9.316;2022-11-18T04:28:10;5;;;0.6;;
17949;SDS011;9100;48.700;9.316;2022-11-18T04:29:10;0.5;;;0.5;;
17949;SDS011;9100;48.700;9.316;2022-11-18T04:29:13;0.5;;;0.5;;
17949;SDS011;9100;48.700;9.316;2022-11-18T04:30:10;0.5;;;0.5;;
17949;SDS011;9100;48.700;9.316;2022-11-18T04:31:10;0.5;;;0.5;;
17949;SDS011;9100;48.700;9.316;2022-11-18T04:32:10;0.5;;;0.5;;
17949;SDS011;9100;48.700;9.316;2022-11-18T04:33:10;0.5;;;0.5;;
17949;SDS011;9100;48.700;9.316;2022-11-18T04:34:10;1;;;0.6;;
17949;SDS011;9100;48.700;9.316;2022-11-18T04:34:13;1;;;0.6;;
17949;SDS011;9100;48.700;9.316;2022-11-18T04:35:10;1;;;0.6;;
17949;SDS011;9100;48.700;9.316;2022-11-18T04:36:10;1;;;0.6;;
17949;SDS011;9100;48.700;9.316;2022-11-18T04:37:10;1;;;0.6;;
17949;SDS011;9100;48.700;9.316;2022-11-18T04:38:10;1;;;0.6;;
17949;SDS011;9100;48.700;9.316;2022-11-18T04:39:10;2.4;;;0.6;;
17949;SDS011;9100;48.700;9.316;2022-11-18T04:39:13;2.3;;;0.6;;
17949;SDS011;9100;48.700;9.316;2022-11-18T04:40:10;2.3;;;0.6;;
17949;SDS011;9100;48.700;9.316;2022-11-18T04:41:10;2.3;;;0.6;;
17949;SDS011;9100;48.700;9.316;2022-11-18T04:42:10;2.3;;;0.6;;
17949;SDS011;9100;48.700;9.316;2022-11-18T04:43:10;2.3;;;0.6;;
17949;SDS011;9100;48.700;9.316;2022-11-18T04:44:10;0.6;;;0.6;;
17949;SDS011;9100;48.700;9.316;2022-11-18T04:44:13;0.6;;;0.6;;
17949;SDS011;9100;48.700;9.316;2022-11-18T04:45:10;0.6;;;0.6;;
17949;SDS011;9100;48.700;9.316;2022-11-18T04:46:10;0.6;;;0.6;;
17949;SDS011;9100;48.700;9.316;2022-11-18T04:47:10;0.6;;;0.6;;
17949;SDS011;9100;48.700;9.316;2022-11-18T04:48:10;0.6;;;0.6;;
17949;SDS011;9100;48.700;9.316;2022-11-18T04:49:10;0.7;;;0.7;;
17949;SDS011;9100;48.700;9.316;2022-11-18T04:49:13;0.7;;;0.7;;
17949;SDS011;9100;48.700;9.316;2022-11-18T04:50:10;0.7;;;0.7;;
17949;SDS011;9100;48.700;9.316;2022-11-18T04:51:10;0.7;;;0.7;;
17949;SDS011;9100;48.700;9.316;2022-11-18T04:52:10;0.7;;;0.7;;
17949;SDS011;9100;48.700;9.316;2022-11-18T04:53:10;0.7;;;0.7;;
17949;SDS011;9100;48.700;9.316;2022-11-18T04:54:10;1.1;;;0.9;;
17949;SDS011;9100;48.700;9.316;2022-11-18T04:54:13;1.1;;;0.8;;
17949;SDS011;9100;48.700;9.316;2022-11-18T04:55:10;1.1;;;0.8;;
17949;SDS011;9100;48.700;9.316;2022-11-18T04:56:10;1.1;;;0.8;;
17949;SDS011;9100;48.700;9.316;2022-11-18T04:57:10;1.1;;;0.8;;
17949;SDS011;9100;48.700;9.316;2022-11-18T04:58:10;1.1;;;0.8;;
17949;SDS011;9100;48.700;9.316;2022-11-18T04:59:10;0.8;;;0.7;;
17949;SDS011;9100;48.700;9.316;2022-11-18T04:59:14;0.8;;;0.7;;
17949;SDS011;9100;48.700;9.316;2022-11-18T05:00:10;0.8;;;0.7;;
17949;SDS011;9100;48.700;9.316;2022-11-18T05:01:10;0.8;;;0.7;;
17949;SDS011;9100;48.700;9.316;2022-11-18T05:02:10;0.8;;;0.7;;
17949;SDS011;9100;48.700;9.316;2022-11-18T05:03:10;0.8;;;0.7;;
17949;SDS011;9100;48.700;9.316;2022-11-18T05:04:11;0.6;;;0.6;;
17949;SDS011;9100;48.700;9.316;2022-11-18T05:04:14;0.6;;;0.6;;
17949;SDS011;9100;48.700;9.316;2022-11-18T05:05:10;0.6;;;0.6;;
17949;SDS011;9100;48.700;9.316;2022-11-18T05:06:10;0.6;;;0.6;;
17949;SDS011;9100;48.700;9.316;2022-11-18T05:07:11;0.6;;;0.6;;
17949;SDS011;9100;48.700;9.316;2022-11-18T05:08:10;0.6;;;0.6;;
17949;SDS011;9100;48.700;9.316;2022-11-18T05:09:10;2.1;;;1;;
17949;SDS011;9100;48.700;9.316;2022-11-18T05:09:13;2;;;1;;
17949;SDS011;9100;48.700;9.316;2022-11-18T05:10:10;2;;;1;;
17949;SDS011;9100;48.700;9.316;2022-11-18T05:11:10;2;;;1;;
17949;SDS011;9100;48.700;9.316;2022-11-18T05:12:11;2;;;1;;
17949;SDS011;9100;48.700;9.316;2022-11-18T05:13:11;2;;;1;;
17949;SDS011;9100;48.700;9.316;2022-11-18T05:14:10;2;;;0.9;;
17949;SDS011;9100;48.700;9.316;2022-11-18T05:14:13;2;;;0.9;;
17949;SDS011;9100;48.700;9.316;2022-11-18T05:15:10;2;;;0.9;;
17949;SDS011;9100;48.700;9.316;2022-11-18T05:16:10;2;;;0.9;;
17949;SDS011;9100;48.700;9.316;2022-11-18T05:17:10;2;;;0.9;;
17949;SDS011;9100;48.700;9.316;2022-11-18T05:18:10;2;;;0.9;;